createdAt,value
2017-10-31T00:00:01.344Z,5.65
2017-10-31T00:01:01.326Z,5.69
2017-10-31T00:02:01.317Z,5.69
2017-10-31T00:03:01.306Z,5.66
2017-10-31T00:04:01.290Z,5.72
2017-10-31T00:05:01.278Z,5.69
2017-10-31T00:06:01.276Z,5.66
2017-10-31T00:07:01.263Z,5.69
2017-10-31T00:08:01.242Z,5.61
2017-10-31T00:09:01.233Z,5.68
2017-10-31T00:10:01.226Z,5.69
2017-10-31T00:11:01.210Z,5.62
2017-10-31T00:12:01.198Z,5.66
2017-10-31T00:13:01.183Z,5.72
2017-10-31T00:14:01.177Z,5.68
2017-10-31T00:15:01.160Z,5.64
2017-10-31T00:16:01.148Z,5.66
2017-10-31T00:17:01.136Z,5.66
2017-10-31T00:18:01.127Z,5.66
2017-10-31T00:19:01.112Z,5.66
2017-10-31T00:20:01.107Z,5.64
2017-10-31T00:21:01.094Z,5.72
2017-10-31T00:22:01.080Z,5.66
2017-10-31T00:23:01.068Z,5.69
2017-10-31T00:24:01.051Z,5.66
2017-10-31T00:25:01.046Z,5.64
2017-10-31T00:26:01.030Z,5.65
2017-10-31T00:27:01.021Z,5.72
2017-10-31T00:28:01.007Z,5.61
2017-10-31T00:29:00.995Z,5.68
2017-10-31T00:30:00.983Z,5.64
2017-10-31T00:31:00.979Z,5.62
2017-10-31T00:32:00.957Z,5.64
2017-10-31T00:33:00.954Z,5.62
2017-10-31T00:34:00.940Z,5.72
2017-10-31T00:35:00.921Z,5.65
2017-10-31T00:36:00.912Z,5.72
2017-10-31T00:37:00.904Z,5.72
2017-10-31T00:38:00.886Z,5.71
2017-10-31T00:39:00.878Z,5.79
2017-10-31T00:40:00.864Z,5.79
2017-10-31T00:41:00.851Z,5.76
2017-10-31T00:42:00.845Z,5.82
2017-10-31T00:43:00.828Z,5.86
2017-10-31T00:44:00.819Z,5.89
2017-10-31T00:45:00.806Z,5.82
2017-10-31T00:46:00.793Z,5.73
2017-10-31T00:47:00.790Z,5.80
2017-10-31T00:48:00.767Z,5.89
2017-10-31T00:49:00.757Z,5.91
2017-10-31T00:50:00.752Z,5.86
2017-10-31T00:51:00.738Z,5.89
2017-10-31T00:52:00.722Z,5.91
2017-10-31T00:53:00.721Z,5.91
2017-10-31T00:54:00.698Z,5.91
2017-10-31T00:55:00.687Z,5.94
2017-10-31T00:56:00.676Z,6.02
2017-10-31T00:57:00.662Z,5.98
2017-10-31T00:58:00.650Z,5.93
2017-10-31T00:59:00.639Z,5.98
2017-10-31T01:00:00.628Z,5.98
2017-10-31T01:01:00.614Z,6.02
2017-10-31T01:02:00.604Z,5.98
2017-10-31T01:03:00.595Z,5.97
2017-10-31T01:04:00.584Z,5.94
2017-10-31T01:05:00.569Z,5.94
2017-10-31T01:06:00.558Z,5.93
2017-10-31T01:07:00.548Z,5.97
2017-10-31T01:08:00.532Z,5.99
2017-10-31T01:09:00.522Z,5.97
2017-10-31T01:10:00.521Z,5.94
2017-10-31T01:11:00.504Z,5.91
2017-10-31T01:12:00.491Z,5.94
2017-10-31T01:13:00.479Z,5.94
2017-10-31T01:14:00.464Z,5.93
2017-10-31T01:15:00.454Z,5.93
2017-10-31T01:16:00.458Z,5.93
2017-10-31T01:17:00.431Z,5.87
2017-10-31T01:18:00.415Z,5.89
2017-10-31T01:19:00.415Z,5.90
2017-10-31T01:20:00.393Z,5.89
2017-10-31T01:21:00.390Z,5.83
2017-10-31T01:22:00.373Z,5.84
2017-10-31T01:23:00.362Z,5.87
2017-10-31T01:24:00.351Z,5.79
2017-10-31T01:25:00.337Z,5.76
2017-10-31T01:26:00.325Z,5.79
2017-10-31T01:27:00.311Z,5.80
2017-10-31T01:28:00.298Z,5.71
2017-10-31T01:29:00.286Z,5.80
2017-10-31T01:30:00.276Z,5.80
2017-10-31T01:31:00.264Z,5.80
2017-10-31T01:32:00.260Z,5.75
2017-10-31T01:33:00.241Z,5.73
2017-10-31T01:34:00.233Z,5.72
2017-10-31T01:35:00.217Z,5.79
2017-10-31T01:36:00.206Z,5.72
2017-10-31T01:37:00.195Z,5.83
2017-10-31T01:38:00.184Z,5.84
2017-10-31T01:39:00.171Z,5.79
2017-10-31T01:40:00.158Z,5.76
2017-10-31T01:41:00.146Z,5.75
2017-10-31T01:42:00.134Z,5.82
2017-10-31T01:43:00.127Z,5.76
2017-10-31T01:44:00.111Z,5.83
2017-10-31T01:45:00.104Z,5.75
2017-10-31T01:46:00.087Z,5.76
2017-10-31T01:47:00.076Z,5.75
2017-10-31T01:48:00.063Z,5.72
2017-10-31T01:49:00.051Z,5.79
2017-10-31T01:50:00.042Z,5.79
2017-10-31T01:51:00.043Z,5.80
2017-10-31T01:52:00.016Z,5.76
2017-10-31T01:53:00.005Z,5.80
2017-10-31T01:53:59.994Z,5.76
2017-10-31T01:54:59.981Z,5.79
2017-10-31T01:55:59.967Z,5.75
2017-10-31T01:56:59.959Z,5.80
2017-10-31T01:57:59.947Z,5.86
2017-10-31T01:58:59.936Z,5.76
2017-10-31T01:59:59.925Z,5.86
2017-10-31T02:00:59.911Z,5.86
2017-10-31T02:01:59.898Z,5.86
2017-10-31T02:02:59.889Z,5.89
2017-10-31T02:03:59.874Z,5.87
2017-10-31T02:04:59.873Z,5.87
2017-10-31T02:05:59.853Z,5.93
2017-10-31T02:06:59.841Z,5.87
2017-10-31T02:07:59.833Z,5.90
2017-10-31T02:08:59.819Z,5.86
2017-10-31T02:09:59.806Z,5.89
2017-10-31T02:10:59.801Z,5.89
2017-10-31T02:11:59.782Z,5.90
2017-10-31T02:12:59.772Z,5.90
2017-10-31T02:13:59.764Z,5.93
2017-10-31T02:14:59.753Z,5.80
2017-10-31T02:15:59.742Z,5.86
2017-10-31T02:16:59.725Z,5.82
2017-10-31T02:17:59.712Z,5.91
2017-10-31T02:18:59.700Z,5.80
2017-10-31T02:19:59.690Z,5.84
2017-10-31T02:20:59.678Z,5.89
2017-10-31T02:21:59.669Z,5.83
2017-10-31T02:22:59.656Z,5.79
2017-10-31T02:23:59.642Z,5.82
2017-10-31T02:24:59.632Z,5.82
2017-10-31T02:25:59.620Z,5.80
2017-10-31T02:26:59.612Z,5.84
2017-10-31T02:27:59.599Z,5.90
2017-10-31T02:28:59.585Z,5.89
2017-10-31T02:29:59.573Z,5.86
2017-10-31T02:30:59.573Z,5.93
2017-10-31T02:31:59.549Z,5.97
2017-10-31T02:32:59.538Z,5.98
2017-10-31T02:33:59.531Z,5.99
2017-10-31T02:34:59.515Z,5.99
2017-10-31T02:35:59.502Z,5.93
2017-10-31T02:36:59.494Z,5.99
2017-10-31T02:38:00.397Z,5.97
2017-10-31T02:38:59.478Z,5.94
2017-10-31T02:39:59.463Z,5.91
2017-10-31T02:40:59.446Z,5.91
2017-10-31T02:41:59.447Z,5.98
2017-10-31T02:42:59.426Z,5.91
2017-10-31T02:43:59.410Z,6.02
2017-10-31T02:44:59.397Z,5.91
2017-10-31T02:45:59.387Z,6.01
2017-10-31T02:46:59.387Z,6.02
2017-10-31T02:47:59.368Z,5.98
2017-10-31T02:48:59.352Z,6.07
2017-10-31T02:49:59.342Z,6.04
2017-10-31T02:50:59.334Z,6.04
2017-10-31T02:51:59.316Z,6.04
2017-10-31T02:52:59.305Z,6.04
2017-10-31T02:53:59.294Z,6.02
2017-10-31T02:54:59.283Z,6.11
2017-10-31T02:55:59.277Z,6.14
2017-10-31T02:56:59.259Z,6.12
2017-10-31T02:57:59.250Z,6.09
2017-10-31T02:58:59.235Z,6.12
2017-10-31T02:59:59.226Z,6.05
2017-10-31T03:00:59.211Z,6.11
2017-10-31T03:01:59.201Z,6.02
2017-10-31T03:02:59.188Z,6.01
2017-10-31T03:03:59.183Z,6.09
2017-10-31T03:04:59.168Z,6.07
2017-10-31T03:05:59.154Z,6.07
2017-10-31T03:06:59.148Z,6.05
2017-10-31T03:07:59.132Z,6.11
2017-10-31T03:08:59.123Z,6.07
2017-10-31T03:09:59.107Z,6.05
2017-10-31T03:10:59.095Z,6.12
2017-10-31T03:11:59.084Z,6.05
2017-10-31T03:12:59.072Z,6.09
2017-10-31T03:13:59.064Z,6.05
2017-10-31T03:14:59.054Z,6.11
2017-10-31T03:15:59.038Z,6.07
2017-10-31T03:16:59.030Z,6.04
2017-10-31T03:17:59.024Z,6.09
2017-10-31T03:18:59.004Z,6.04
2017-10-31T03:19:58.992Z,6.09
2017-10-31T03:20:58.981Z,6.12
2017-10-31T03:21:58.971Z,6.12
2017-10-31T03:22:58.958Z,6.07
2017-10-31T03:23:58.952Z,6.07
2017-10-31T03:24:58.946Z,6.05
2017-10-31T03:25:58.924Z,6.04
2017-10-31T03:26:58.912Z,6.01
2017-10-31T03:27:58.897Z,6.07
2017-10-31T03:28:58.888Z,6.01
2017-10-31T03:29:58.877Z,6.04
2017-10-31T03:30:58.865Z,6.08
2017-10-31T03:31:58.853Z,6.04
2017-10-31T03:32:58.840Z,6.05
2017-10-31T03:33:58.831Z,6.08
2017-10-31T03:34:58.823Z,6.02
2017-10-31T03:35:58.807Z,6.07
2017-10-31T03:36:58.794Z,6.07
2017-10-31T03:37:58.782Z,6.07
2017-10-31T03:38:58.780Z,6.01
2017-10-31T03:39:58.757Z,6.04
2017-10-31T03:40:58.753Z,6.07
2017-10-31T03:41:58.737Z,6.05
2017-10-31T03:42:58.724Z,6.04
2017-10-31T03:43:58.714Z,6.05
2017-10-31T03:44:58.703Z,6.01
2017-10-31T03:45:58.693Z,5.99
2017-10-31T03:46:58.679Z,6.05
2017-10-31T03:47:58.667Z,6.08
2017-10-31T03:48:58.655Z,6.07
2017-10-31T03:49:58.645Z,6.04
2017-10-31T03:50:58.633Z,6.07
2017-10-31T03:51:58.628Z,6.04
2017-10-31T03:52:58.611Z,6.08
2017-10-31T03:53:58.597Z,6.09
2017-10-31T03:54:58.584Z,6.16
2017-10-31T03:55:58.582Z,6.04
2017-10-31T03:56:58.561Z,6.12
2017-10-31T03:57:58.552Z,6.11
2017-10-31T03:58:58.542Z,6.16
2017-10-31T03:59:58.526Z,6.11
2017-10-31T04:00:58.515Z,6.02
2017-10-31T04:01:58.505Z,6.08
2017-10-31T04:02:58.500Z,6.07
2017-10-31T04:03:58.483Z,6.04
2017-10-31T04:04:58.468Z,6.04
2017-10-31T04:05:58.460Z,6.02
2017-10-31T04:06:58.452Z,5.99
2017-10-31T04:07:58.435Z,6.04
2017-10-31T04:08:58.426Z,5.99
2017-10-31T04:09:58.411Z,5.93
2017-10-31T04:10:58.402Z,5.94
2017-10-31T04:11:58.388Z,5.93
2017-10-31T04:12:58.375Z,5.93
2017-10-31T04:13:58.367Z,5.94
2017-10-31T04:14:58.354Z,5.90
2017-10-31T04:15:58.342Z,5.90
2017-10-31T04:16:58.335Z,5.93
2017-10-31T04:17:58.318Z,5.86
2017-10-31T04:18:58.306Z,5.86
2017-10-31T04:19:58.306Z,5.84
2017-10-31T04:20:58.282Z,5.84
2017-10-31T04:21:58.272Z,5.89
2017-10-31T04:22:58.261Z,5.73
2017-10-31T04:23:58.248Z,5.79
2017-10-31T04:24:58.235Z,5.86
2017-10-31T04:25:58.230Z,5.84
2017-10-31T04:26:58.219Z,5.80
2017-10-31T04:27:58.199Z,5.71
2017-10-31T04:28:58.191Z,5.75
2017-10-31T04:29:58.177Z,5.69
2017-10-31T04:30:58.172Z,5.65
2017-10-31T04:31:58.154Z,5.71
2017-10-31T04:32:58.141Z,5.65
2017-10-31T04:33:58.134Z,5.69
2017-10-31T04:34:58.118Z,5.71
2017-10-31T04:35:58.107Z,5.71
2017-10-31T04:36:58.106Z,5.71
2017-10-31T04:37:58.086Z,5.68
2017-10-31T04:38:58.078Z,5.65
2017-10-31T04:39:58.062Z,5.65
2017-10-31T04:40:58.050Z,5.72
2017-10-31T04:41:58.045Z,5.65
2017-10-31T04:42:58.026Z,5.69
2017-10-31T04:43:58.017Z,5.69
2017-10-31T04:44:58.000Z,5.72
2017-10-31T04:45:57.993Z,5.72
2017-10-31T04:46:57.986Z,5.65
2017-10-31T04:47:57.963Z,5.68
2017-10-31T04:48:57.952Z,5.73
2017-10-31T04:49:57.941Z,5.66
2017-10-31T04:50:57.929Z,5.71
2017-10-31T04:51:57.919Z,5.71
2017-10-31T04:52:57.911Z,5.73
2017-10-31T04:53:57.896Z,5.83
2017-10-31T04:54:57.885Z,5.68
2017-10-31T04:55:57.872Z,5.80
2017-10-31T04:56:57.868Z,5.83
2017-10-31T04:57:57.846Z,5.76
2017-10-31T04:58:57.846Z,5.79
2017-10-31T04:59:57.826Z,5.76
2017-10-31T05:00:57.811Z,5.80
2017-10-31T05:01:57.802Z,5.76
2017-10-31T05:02:57.793Z,5.89
2017-10-31T05:03:57.778Z,5.75
2017-10-31T05:04:57.766Z,5.87
2017-10-31T05:05:57.751Z,5.87
2017-10-31T05:06:57.744Z,5.84
2017-10-31T05:07:57.745Z,5.84
2017-10-31T05:08:57.717Z,5.80
2017-10-31T05:09:57.710Z,5.87
2017-10-31T05:10:57.694Z,5.87
2017-10-31T05:11:57.684Z,5.73
2017-10-31T05:12:57.670Z,5.79
2017-10-31T05:13:57.667Z,5.80
2017-10-31T05:14:57.655Z,5.79
2017-10-31T05:15:57.635Z,5.82
2017-10-31T05:16:57.623Z,5.80
2017-10-31T05:17:57.613Z,5.79
2017-10-31T05:18:57.600Z,5.83
2017-10-31T05:19:57.588Z,5.86
2017-10-31T05:20:57.582Z,5.72
2017-10-31T05:21:57.564Z,5.82
2017-10-31T05:22:57.556Z,5.79
2017-10-31T05:23:57.542Z,5.80
2017-10-31T05:24:57.529Z,5.76
2017-10-31T05:25:57.518Z,5.82
2017-10-31T05:26:57.513Z,5.84
2017-10-31T05:27:57.494Z,5.79
2017-10-31T05:28:57.481Z,5.76
2017-10-31T05:29:57.473Z,5.86
2017-10-31T05:30:57.463Z,5.71
2017-10-31T05:31:57.447Z,5.73
2017-10-31T05:32:57.436Z,5.75
2017-10-31T05:33:57.424Z,5.76
2017-10-31T05:34:57.411Z,5.80
2017-10-31T05:35:57.402Z,5.86
2017-10-31T05:36:57.388Z,5.84
2017-10-31T05:37:57.382Z,5.80
2017-10-31T05:38:57.366Z,5.90
2017-10-31T05:39:57.354Z,5.86
2017-10-31T05:40:57.344Z,5.91
2017-10-31T05:41:57.334Z,5.89
2017-10-31T05:42:57.319Z,5.89
2017-10-31T05:43:57.306Z,5.89
2017-10-31T05:44:57.296Z,5.86
2017-10-31T05:45:57.283Z,5.87
2017-10-31T05:46:57.272Z,5.93
2017-10-31T05:47:57.263Z,5.91
2017-10-31T05:48:57.250Z,5.90
2017-10-31T05:49:57.247Z,5.87
2017-10-31T05:50:57.225Z,5.94
2017-10-31T05:51:57.212Z,5.94
2017-10-31T05:52:57.203Z,5.93
2017-10-31T05:53:57.195Z,5.98
2017-10-31T05:54:57.189Z,5.99
2017-10-31T05:55:57.167Z,5.91
2017-10-31T05:56:57.154Z,5.94
2017-10-31T05:57:57.143Z,5.99
2017-10-31T05:58:57.131Z,5.98
2017-10-31T05:59:57.121Z,5.99
2017-10-31T06:00:57.111Z,5.91
2017-10-31T06:01:57.097Z,5.94
2017-10-31T06:02:57.086Z,5.99
2017-10-31T06:03:57.075Z,5.94
2017-10-31T06:04:57.061Z,6.01
2017-10-31T06:05:57.054Z,6.04
2017-10-31T06:06:57.040Z,6.02
2017-10-31T06:07:57.028Z,6.02
2017-10-31T06:08:57.027Z,6.02
2017-10-31T06:09:57.002Z,6.02
2017-10-31T06:10:56.992Z,6.01
2017-10-31T06:11:56.980Z,5.99
2017-10-31T06:12:56.969Z,6.05
2017-10-31T06:13:56.957Z,6.01
2017-10-31T06:14:56.947Z,6.05
2017-10-31T06:15:56.934Z,6.01
2017-10-31T06:16:56.925Z,6.02
2017-10-31T06:17:56.915Z,5.99
2017-10-31T06:18:56.900Z,5.98
2017-10-31T06:19:56.887Z,5.93
2017-10-31T06:20:56.882Z,6.04
2017-10-31T06:21:56.873Z,6.09
2017-10-31T06:22:56.872Z,6.08
2017-10-31T06:23:56.841Z,5.99
2017-10-31T06:24:56.829Z,6.01
2017-10-31T06:25:56.818Z,6.07
2017-10-31T06:26:56.809Z,6.04
2017-10-31T06:27:56.800Z,6.02
2017-10-31T06:28:56.783Z,6.08
2017-10-31T06:29:56.777Z,6.11
2017-10-31T06:30:56.760Z,6.11
2017-10-31T06:31:56.749Z,6.12
2017-10-31T06:32:56.737Z,6.12
2017-10-31T06:33:56.730Z,6.11
2017-10-31T06:34:56.714Z,6.11
2017-10-31T06:35:56.705Z,6.08
2017-10-31T06:36:56.691Z,6.07
2017-10-31T06:37:56.677Z,6.11
2017-10-31T06:38:56.672Z,6.14
2017-10-31T06:39:56.655Z,6.16
2017-10-31T06:40:56.648Z,6.16
2017-10-31T06:41:56.635Z,6.20
2017-10-31T06:42:56.631Z,6.22
2017-10-31T06:43:56.611Z,6.12
2017-10-31T06:44:56.598Z,6.12
2017-10-31T06:45:56.587Z,6.11
2017-10-31T06:46:56.577Z,6.19
2017-10-31T06:47:56.565Z,6.20
2017-10-31T06:48:56.552Z,6.16
2017-10-31T06:49:56.540Z,6.17
2017-10-31T06:50:56.536Z,6.20
2017-10-31T06:51:56.526Z,6.19
2017-10-31T06:52:56.506Z,6.14
2017-10-31T06:53:56.495Z,6.11
2017-10-31T06:54:56.488Z,6.16
2017-10-31T06:55:56.474Z,6.16
2017-10-31T06:56:56.459Z,6.22
2017-10-31T06:57:56.449Z,6.14
2017-10-31T06:58:56.438Z,6.19
2017-10-31T06:59:56.434Z,6.20
2017-10-31T07:00:56.413Z,6.24
2017-10-31T07:01:56.409Z,6.22
2017-10-31T07:02:56.393Z,6.22
2017-10-31T07:03:56.379Z,6.24
2017-10-31T07:04:56.368Z,6.27
2017-10-31T07:05:56.360Z,6.36
2017-10-31T07:06:56.345Z,6.33
2017-10-31T07:07:56.338Z,6.36
2017-10-31T07:08:56.323Z,6.36
2017-10-31T07:09:56.323Z,6.39
2017-10-31T07:10:56.298Z,6.36
2017-10-31T07:11:56.288Z,6.48
2017-10-31T07:12:56.278Z,6.48
2017-10-31T07:13:56.274Z,6.48
2017-10-31T07:14:56.253Z,6.45
2017-10-31T07:15:56.244Z,6.56
2017-10-31T07:16:56.238Z,6.54
2017-10-31T07:17:56.227Z,6.60
2017-10-31T07:18:56.215Z,6.63
2017-10-31T07:19:56.196Z,6.70
2017-10-31T07:20:56.188Z,6.66
2017-10-31T07:21:56.175Z,6.60
2017-10-31T07:22:56.163Z,6.72
2017-10-31T07:23:56.150Z,6.72
2017-10-31T07:24:56.145Z,6.84
2017-10-31T07:25:56.131Z,6.85
2017-10-31T07:26:56.121Z,6.89
2017-10-31T07:27:56.106Z,6.93
2017-10-31T07:28:56.100Z,6.89
2017-10-31T07:29:56.085Z,6.95
2017-10-31T07:30:56.071Z,6.95
2017-10-31T07:31:56.060Z,7.06
2017-10-31T07:32:56.058Z,7.03
2017-10-31T07:33:56.038Z,7.13
2017-10-31T07:34:56.030Z,7.05
2017-10-31T07:35:56.018Z,7.05
2017-10-31T07:36:56.016Z,7.07
2017-10-31T07:37:55.994Z,7.05
2017-10-31T07:38:56.002Z,7.10
2017-10-31T07:39:55.975Z,7.06
2017-10-31T07:40:55.963Z,7.20
2017-10-31T07:41:55.954Z,7.21
2017-10-31T07:42:55.941Z,7.06
2017-10-31T07:43:55.929Z,7.15
2017-10-31T07:44:55.920Z,7.21
2017-10-31T07:45:55.907Z,7.18
2017-10-31T07:46:55.894Z,7.28
2017-10-31T07:47:55.890Z,7.18
2017-10-31T07:48:55.874Z,7.20
2017-10-31T07:49:55.861Z,7.25
2017-10-31T07:50:55.850Z,7.32
2017-10-31T07:51:55.839Z,7.33
2017-10-31T07:52:55.832Z,7.39
2017-10-31T07:53:55.823Z,7.36
2017-10-31T07:54:55.806Z,7.36
2017-10-31T07:55:55.799Z,7.35
2017-10-31T07:56:55.791Z,7.40
2017-10-31T07:57:55.774Z,7.39
2017-10-31T07:58:55.763Z,7.40
2017-10-31T07:59:55.754Z,7.43
2017-10-31T08:00:55.748Z,7.36
2017-10-31T08:01:55.737Z,7.48
2017-10-31T08:02:55.722Z,7.43
2017-10-31T08:03:55.707Z,7.57
2017-10-31T08:04:55.704Z,7.39
2017-10-31T08:05:55.691Z,7.47
2017-10-31T08:06:55.678Z,7.60
2017-10-31T08:07:55.664Z,7.54
2017-10-31T08:08:55.653Z,7.53
2017-10-31T08:09:55.642Z,7.56
2017-10-31T08:10:55.635Z,7.56
2017-10-31T08:11:55.620Z,7.50
2017-10-31T08:12:55.610Z,7.57
2017-10-31T08:13:55.598Z,7.57
2017-10-31T08:14:55.589Z,7.54
2017-10-31T08:15:55.587Z,7.57
2017-10-31T08:16:55.571Z,7.53
2017-10-31T08:17:55.560Z,7.56
2017-10-31T08:18:55.551Z,7.63
2017-10-31T08:19:55.534Z,7.60
2017-10-31T08:20:55.526Z,7.67
2017-10-31T08:21:55.513Z,7.61
2017-10-31T08:22:55.503Z,7.63
2017-10-31T08:23:55.491Z,7.72
2017-10-31T08:24:55.484Z,7.77
2017-10-31T08:25:55.468Z,7.76
2017-10-31T08:26:55.459Z,7.73
2017-10-31T08:27:55.447Z,7.80
2017-10-31T08:28:55.444Z,7.90
2017-10-31T08:29:55.427Z,7.80
2017-10-31T08:30:55.422Z,7.82
2017-10-31T08:31:55.402Z,7.85
2017-10-31T08:32:55.396Z,7.85
2017-10-31T08:33:55.384Z,7.88
2017-10-31T08:34:55.374Z,7.87
2017-10-31T08:35:55.369Z,7.95
2017-10-31T08:36:55.355Z,8.03
2017-10-31T08:37:55.342Z,7.94
2017-10-31T08:38:55.330Z,8.05
2017-10-31T08:39:55.320Z,8.01
2017-10-31T08:40:55.324Z,8.18
2017-10-31T08:41:55.302Z,8.09
2017-10-31T08:42:55.285Z,8.18
2017-10-31T08:43:55.277Z,8.23
2017-10-31T08:44:55.267Z,8.10
2017-10-31T08:45:55.255Z,8.26
2017-10-31T08:46:55.245Z,8.19
2017-10-31T08:47:55.258Z,8.28
2017-10-31T08:48:55.224Z,8.27
2017-10-31T08:49:55.216Z,8.31
2017-10-31T08:50:55.204Z,8.30
2017-10-31T08:51:55.196Z,8.42
2017-10-31T08:52:55.183Z,8.31
2017-10-31T08:53:55.176Z,8.37
2017-10-31T08:54:55.162Z,8.42
2017-10-31T08:55:55.151Z,8.34
2017-10-31T08:56:55.141Z,8.33
2017-10-31T08:57:55.128Z,8.36
2017-10-31T08:58:55.122Z,8.34
2017-10-31T08:59:55.108Z,8.37
2017-10-31T09:00:55.104Z,8.36
2017-10-31T09:01:55.090Z,8.41
2017-10-31T09:02:55.078Z,8.37
2017-10-31T09:03:55.067Z,8.36
2017-10-31T09:04:55.058Z,8.42
2017-10-31T09:05:55.051Z,8.45
2017-10-31T09:06:55.044Z,8.46
2017-10-31T09:07:55.025Z,8.44
2017-10-31T09:08:55.022Z,8.37
2017-10-31T09:09:55.007Z,8.38
2017-10-31T09:10:54.996Z,8.51
2017-10-31T09:11:54.985Z,8.46
2017-10-31T09:12:54.984Z,8.48
2017-10-31T09:13:54.966Z,8.41
2017-10-31T09:14:54.965Z,8.48
2017-10-31T09:15:54.971Z,8.41
2017-10-31T09:16:54.933Z,8.37
2017-10-31T09:17:54.924Z,8.44
2017-10-31T09:18:54.919Z,8.49
2017-10-31T09:19:54.901Z,8.46
2017-10-31T09:20:54.890Z,8.45
2017-10-31T09:21:54.879Z,8.38
2017-10-31T09:22:54.878Z,8.45
2017-10-31T09:23:54.860Z,8.55
2017-10-31T09:24:54.852Z,8.46
2017-10-31T09:25:54.844Z,8.41
2017-10-31T09:26:54.829Z,8.45
2017-10-31T09:27:54.818Z,8.49
2017-10-31T09:28:54.817Z,8.46
2017-10-31T09:29:54.797Z,8.46
2017-10-31T09:30:54.790Z,8.45
2017-10-31T09:31:54.777Z,8.49
2017-10-31T09:32:54.766Z,8.49
2017-10-31T09:33:54.755Z,8.48
2017-10-31T09:34:54.749Z,8.37
2017-10-31T09:35:54.736Z,8.41
2017-10-31T09:36:54.726Z,8.38
2017-10-31T09:37:54.716Z,8.53
2017-10-31T09:38:54.703Z,8.56
2017-10-31T09:39:54.703Z,8.56
2017-10-31T09:40:54.686Z,8.49
2017-10-31T09:41:54.677Z,8.53
2017-10-31T09:42:54.664Z,8.53
2017-10-31T09:43:54.651Z,8.63
2017-10-31T09:44:54.641Z,8.63
2017-10-31T09:45:54.637Z,8.63
2017-10-31T09:46:54.623Z,8.66
2017-10-31T09:47:54.612Z,8.61
2017-10-31T09:48:54.605Z,8.66
2017-10-31T09:49:54.601Z,8.67
2017-10-31T09:50:54.582Z,8.64
2017-10-31T09:51:54.569Z,8.67
2017-10-31T09:52:54.558Z,8.67
2017-10-31T09:53:54.548Z,8.78
2017-10-31T09:54:54.539Z,8.74
2017-10-31T09:55:54.529Z,8.78
2017-10-31T09:56:54.519Z,8.82
2017-10-31T09:57:54.508Z,8.74
2017-10-31T09:58:54.500Z,8.79
2017-10-31T09:59:54.486Z,8.76
2017-10-31T10:00:54.481Z,8.85
2017-10-31T10:01:54.465Z,8.91
2017-10-31T10:02:54.457Z,8.91
2017-10-31T10:03:54.445Z,8.92
2017-10-31T10:04:54.442Z,8.91
2017-10-31T10:05:54.425Z,9.04
2017-10-31T10:06:54.416Z,9.04
2017-10-31T10:07:54.407Z,9.04
2017-10-31T10:08:54.393Z,9.14
2017-10-31T10:09:54.384Z,9.08
2017-10-31T10:10:54.377Z,9.14
2017-10-31T10:11:54.363Z,9.16
2017-10-31T10:12:54.356Z,9.22
2017-10-31T10:13:54.342Z,9.08
2017-10-31T10:14:54.335Z,9.10
2017-10-31T10:15:54.322Z,9.21
2017-10-31T10:16:54.324Z,9.26
2017-10-31T10:17:54.304Z,9.19
2017-10-31T10:18:54.301Z,9.16
2017-10-31T10:19:54.282Z,9.21
2017-10-31T10:20:54.279Z,9.29
2017-10-31T10:21:54.262Z,9.26
2017-10-31T10:22:54.278Z,9.31
2017-10-31T10:23:54.243Z,9.31
2017-10-31T10:24:54.232Z,9.29
2017-10-31T10:25:54.221Z,9.28
2017-10-31T10:26:54.230Z,9.28
2017-10-31T10:27:54.204Z,9.29
2017-10-31T10:28:54.196Z,9.29
2017-10-31T10:29:54.183Z,9.32
2017-10-31T10:30:54.173Z,9.23
2017-10-31T10:31:54.163Z,9.31
2017-10-31T10:32:54.152Z,9.31
2017-10-31T10:33:54.143Z,9.29
2017-10-31T10:34:54.133Z,9.31
2017-10-31T10:35:54.123Z,9.31
2017-10-31T10:36:54.113Z,9.29
2017-10-31T10:37:54.102Z,9.29
2017-10-31T10:38:54.095Z,9.36
2017-10-31T10:39:54.082Z,9.39
2017-10-31T10:40:54.072Z,9.40
2017-10-31T10:41:54.075Z,9.32
2017-10-31T10:42:54.060Z,9.37
2017-10-31T10:43:54.043Z,9.40
2017-10-31T10:44:54.033Z,9.34
2017-10-31T10:45:54.029Z,9.34
2017-10-31T10:46:54.014Z,9.36
2017-10-31T10:47:54.016Z,9.43
2017-10-31T10:48:53.993Z,9.34
2017-10-31T10:49:53.986Z,9.34
2017-10-31T10:50:53.974Z,9.34
2017-10-31T10:51:53.967Z,9.32
2017-10-31T10:52:53.953Z,9.39
2017-10-31T10:53:53.949Z,9.39
2017-10-31T10:54:53.934Z,9.41
2017-10-31T10:55:53.925Z,9.44
2017-10-31T10:56:53.916Z,9.43
2017-10-31T10:57:53.904Z,9.46
2017-10-31T10:58:53.898Z,9.47
2017-10-31T10:59:53.887Z,9.47
2017-10-31T11:00:53.875Z,9.50
2017-10-31T11:01:53.864Z,9.48
2017-10-31T11:02:53.858Z,9.40
2017-10-31T11:03:53.845Z,9.47
2017-10-31T11:04:53.834Z,9.34
2017-10-31T11:05:53.831Z,9.37
2017-10-31T11:06:53.820Z,9.36
2017-10-31T11:07:53.804Z,9.32
2017-10-31T11:08:53.799Z,9.34
2017-10-31T11:09:53.785Z,9.41
2017-10-31T11:10:53.777Z,9.34
2017-10-31T11:11:53.763Z,9.43
2017-10-31T11:12:53.756Z,9.47
2017-10-31T11:13:53.746Z,9.41
2017-10-31T11:14:53.738Z,9.50
2017-10-31T11:15:53.731Z,9.50
2017-10-31T11:16:53.714Z,9.50
2017-10-31T11:17:53.706Z,9.56
2017-10-31T11:18:53.702Z,9.59
2017-10-31T11:19:53.685Z,9.58
2017-10-31T11:20:53.676Z,9.64
2017-10-31T11:21:53.668Z,9.66
2017-10-31T11:22:53.660Z,9.68
2017-10-31T11:23:53.645Z,9.68
2017-10-31T11:24:53.640Z,9.69
2017-10-31T11:25:53.627Z,9.68
2017-10-31T11:26:53.618Z,9.77
2017-10-31T11:27:53.613Z,9.74
2017-10-31T11:28:53.599Z,9.73
2017-10-31T11:29:53.590Z,9.76
2017-10-31T11:30:53.579Z,9.77
2017-10-31T11:31:53.566Z,9.76
2017-10-31T11:32:53.558Z,9.80
2017-10-31T11:33:53.547Z,9.87
2017-10-31T11:34:53.541Z,9.98
2017-10-31T11:35:53.569Z,9.95
2017-10-31T11:36:53.518Z,9.97
2017-10-31T11:37:53.510Z,10.04
2017-10-31T11:38:53.510Z,10.01
2017-10-31T11:39:53.496Z,10.15
2017-10-31T11:40:53.495Z,10.10
2017-10-31T11:41:53.485Z,10.10
2017-10-31T11:42:53.482Z,10.16
2017-10-31T11:43:53.463Z,10.19
2017-10-31T11:44:53.445Z,10.23
2017-10-31T11:45:53.454Z,10.23
2017-10-31T11:46:53.428Z,10.15
2017-10-31T11:47:53.431Z,10.31
2017-10-31T11:48:53.407Z,10.35
2017-10-31T11:49:53.403Z,10.25
2017-10-31T11:50:53.394Z,10.35
2017-10-31T11:51:53.380Z,10.26
2017-10-31T11:52:53.379Z,10.28
2017-10-31T11:53:53.362Z,10.33
2017-10-31T11:54:53.362Z,10.26
2017-10-31T11:55:53.346Z,10.37
2017-10-31T11:56:53.347Z,10.38
2017-10-31T11:57:53.332Z,10.44
2017-10-31T11:58:53.315Z,10.51
2017-10-31T11:59:53.304Z,10.49
2017-10-31T12:00:53.302Z,10.54
2017-10-31T12:01:53.289Z,10.56
2017-10-31T12:02:53.279Z,10.57
2017-10-31T12:03:53.274Z,10.53
2017-10-31T12:04:53.258Z,10.64
2017-10-31T12:05:53.263Z,10.68
2017-10-31T12:06:53.244Z,10.76
2017-10-31T12:07:53.236Z,10.75
2017-10-31T12:08:53.226Z,10.81
2017-10-31T12:09:53.222Z,10.68
2017-10-31T12:10:53.207Z,10.81
2017-10-31T12:11:53.197Z,10.79
2017-10-31T12:12:53.192Z,10.79
2017-10-31T12:13:53.192Z,10.79
2017-10-31T12:14:53.992Z,10.81
2017-10-31T12:15:53.164Z,10.72
2017-10-31T12:16:53.155Z,10.79
2017-10-31T12:17:53.160Z,10.75
2017-10-31T12:18:53.143Z,10.76
2017-10-31T12:19:53.130Z,10.86
2017-10-31T12:20:53.123Z,10.93
2017-10-31T12:21:53.108Z,10.93
2017-10-31T12:22:53.105Z,11.12
2017-10-31T12:23:53.092Z,11.12
2017-10-31T12:24:53.088Z,11.25
2017-10-31T12:25:53.079Z,11.36
2017-10-31T12:26:53.068Z,11.35
2017-10-31T12:27:53.074Z,11.41
2017-10-31T12:28:53.069Z,11.40
2017-10-31T12:29:53.051Z,11.36
2017-10-31T12:30:53.034Z,11.43
2017-10-31T12:31:53.028Z,11.43
2017-10-31T12:32:53.018Z,11.43
2017-10-31T12:33:53.031Z,11.43
2017-10-31T12:34:53.028Z,11.41
2017-10-31T12:35:53.012Z,11.43
2017-10-31T12:36:52.998Z,11.50
2017-10-31T12:37:52.983Z,11.41
2017-10-31T12:38:52.990Z,11.47
2017-10-31T12:39:52.995Z,11.40
2017-10-31T12:40:52.957Z,11.47
2017-10-31T12:41:52.978Z,11.37
2017-10-31T12:42:52.949Z,11.40
2017-10-31T12:43:52.939Z,11.40
2017-10-31T12:44:52.928Z,11.43
2017-10-31T12:45:52.914Z,11.44
2017-10-31T12:46:52.945Z,11.43
2017-10-31T12:47:52.901Z,11.32
2017-10-31T12:48:52.914Z,11.35
2017-10-31T12:49:52.925Z,11.22
2017-10-31T12:50:52.903Z,11.26
2017-10-31T12:51:52.879Z,11.14
2017-10-31T12:52:52.858Z,11.19
2017-10-31T12:53:52.884Z,11.18
2017-10-31T12:54:52.872Z,11.07
2017-10-31T12:55:52.878Z,11.12
2017-10-31T12:56:52.864Z,11.17
2017-10-31T12:57:52.853Z,11.17
2017-10-31T12:58:52.857Z,11.17
2017-10-31T12:59:52.800Z,11.23
2017-10-31T13:00:52.807Z,11.19
2017-10-31T13:01:52.785Z,11.05
2017-10-31T13:02:52.806Z,11.14
2017-10-31T13:03:52.769Z,11.19
2017-10-31T13:04:52.759Z,11.10
2017-10-31T13:05:52.748Z,11.07
2017-10-31T13:06:52.747Z,11.10
2017-10-31T13:07:52.729Z,11.12
2017-10-31T13:08:52.760Z,11.22
2017-10-31T13:09:52.728Z,11.11
2017-10-31T13:10:52.717Z,11.18
2017-10-31T13:11:52.696Z,11.23
2017-10-31T13:12:52.688Z,11.14
2017-10-31T13:13:52.681Z,11.19
2017-10-31T13:14:52.679Z,11.17